Time;durP1;ratioP1;P1;durP2;ratioP2;P2;SDS_P1;SDS_P2;PMS_P1;PMS_P2;Temp;Humidity;BMP_temperature;BMP_pressure;BME280_temperature;BME280_humidity;BME280_pressure;Samples;Min_cycle;Max_cycle;Signal;HPM_P1;HPM_P2
2022/07/08 00:00:40;;;;;;;0.40;0.20;;;;;;;22.29;100.00;95246.50;5132081;28;20558;-58
2022/07/08 00:03:08;;;;;;;0.50;0.30;;;;;;;22.24;100.00;95245.97;5132653;28;20491;-58
2022/07/08 00:05:37;;;;;;;0.40;0.20;;;;;;;22.26;100.00;95249.91;5132700;28;20430;-58
2022/07/08 00:08:06;;;;;;;0.40;0.20;;;;;;;22.23;100.00;95239.00;5132563;28;20462;-58
2022/07/08 00:10:34;;;;;;;0.40;0.20;;;;;;;22.18;100.00;95248.13;5132719;28;20483;-58
2022/07/08 00:13:03;;;;;;;0.50;0.33;;;;;;;22.22;100.00;95243.59;5132361;28;20466;-58
2022/07/08 00:15:33;;;;;;;0.40;0.20;;;;;;;22.16;100.00;95234.19;5132163;28;20466;-58
2022/07/08 00:18:01;;;;;;;0.50;0.40;;;;;;;22.18;100.00;95231.16;5132809;28;20840;-59
2022/07/08 00:20:30;;;;;;;0.50;0.40;;;;;;;22.14;100.00;95231.03;5132425;28;20467;-59
2022/07/08 00:22:58;;;;;;;0.40;0.20;;;;;;;22.10;100.00;95235.56;5132426;28;20422;-58
2022/07/08 00:25:27;;;;;;;0.50;0.40;;;;;;;22.02;100.00;95234.59;5132355;28;20491;-58
2022/07/08 00:27:55;;;;;;;0.47;0.30;;;;;;;21.71;100.00;95233.63;5135276;27;20449;-59
2022/07/08 00:30:24;;;;;;;0.40;0.20;;;;;;;21.70;100.00;95227.47;5136508;27;20423;-59
2022/07/08 00:32:53;;;;;;;0.40;0.30;;;;;;;21.82;100.00;95230.13;5136490;27;20489;-58
2022/07/08 00:35:22;;;;;;;0.40;0.30;;;;;;;21.86;100.00;95224.84;5136382;27;20490;-59
2022/07/08 00:37:50;;;;;;;0.50;0.30;;;;;;;21.88;100.00;95226.06;5136352;27;20430;-59
2022/07/08 00:40:19;;;;;;;0.50;0.30;;;;;;;21.84;100.00;95213.59;5135917;27;20482;-59
2022/07/08 00:42:48;;;;;;;0.90;0.50;;;;;;;21.46;100.00;95222.13;5136015;27;20430;-58
2022/07/08 00:45:17;;;;;;;0.40;0.30;;;;;;;21.66;100.00;95215.78;5135819;27;20928;-58
2022/07/08 00:47:46;;;;;;;0.40;0.30;;;;;;;21.75;100.00;95219.13;5135863;27;20426;-58
2022/07/08 00:50:16;;;;;;;0.50;0.40;;;;;;;21.76;100.00;95226.09;5135846;27;20916;-58
2022/07/08 00:52:46;;;;;;;0.57;0.57;;;;;;;21.82;100.00;95221.25;5136019;27;20462;-58
2022/07/08 00:55:14;;;;;;;0.40;0.20;;;;;;;21.80;100.00;95228.91;5135794;27;20430;-58
2022/07/08 00:57:43;;;;;;;0.50;0.33;;;;;;;21.41;100.00;95236.63;5135745;27;20479;-58
2022/07/08 01:00:12;;;;;;;0.40;0.30;;;;;;;20.61;100.00;95211.34;5135655;27;20805;-59
2022/07/08 01:02:40;;;;;;;0.40;0.30;;;;;;;20.72;100.00;95242.09;5135554;27;20476;-59
2022/07/08 01:05:09;;;;;;;0.67;0.67;;;;;;;20.64;100.00;95244.88;5135485;27;20495;-59
2022/07/08 01:07:41;;;;;;;2.30;0.40;;;;;;;20.75;100.00;95241.41;5135518;27;20411;-59
2022/07/08 01:10:10;;;;;;;0.60;0.60;;;;;;;20.13;100.00;95260.41;5135668;27;20749;-59
2022/07/08 01:12:39;;;;;;;1.27;0.40;;;;;;;19.71;100.00;95256.16;5135418;27;20461;-59
2022/07/08 01:15:08;;;;;;;0.50;0.50;;;;;;;19.59;100.00;95270.34;5134959;27;21005;-59
2022/07/08 01:17:44;;;;;;;1.60;0.90;;;;;;;19.45;100.00;95263.63;5135452;27;20858;-59
2022/07/08 01:20:14;;;;;;;0.40;0.30;;;;;;;19.69;100.00;95258.41;5135316;27;20422;-60
2022/07/08 01:22:44;;;;;;;0.50;0.33;;;;;;;20.08;100.00;95255.25;5135332;27;20988;-60
2022/07/08 01:25:13;;;;;;;0.60;0.50;;;;;;;20.19;100.00;95251.00;5135274;27;20433;-59
2022/07/08 01:27:41;;;;;;;0.40;0.30;;;;;;;20.48;100.00;95246.63;5135537;27;20471;-59
2022/07/08 01:30:10;;;;;;;0.93;0.50;;;;;;;20.83;100.00;95247.81;5135152;27;20435;-59
2022/07/08 01:32:41;;;;;;;0.40;0.30;;;;;;;21.12;100.00;95238.78;5134819;27;20484;-60
2022/07/08 01:35:10;;;;;;;0.50;0.40;;;;;;;21.07;100.00;95239.81;5135071;27;20916;-59
2022/07/08 01:37:38;;;;;;;0.50;0.50;;;;;;;21.08;100.00;95237.88;5135061;27;20826;-59
2022/07/08 01:40:10;;;;;;;0.47;0.30;;;;;;;21.19;100.00;95237.09;5134063;27;20426;-59
2022/07/08 01:42:38;;;;;;;1.83;0.50;;;;;;;20.73;100.00;95238.28;5134930;27;20463;-59
2022/07/08 01:45:08;;;;;;;0.40;0.30;;;;;;;20.88;100.00;95247.59;5135174;27;20860;-59
2022/07/08 01:47:36;;;;;;;0.40;0.30;;;;;;;20.93;100.00;95239.31;5135166;27;20453;-59
2022/07/08 01:50:06;;;;;;;0.50;0.30;;;;;;;20.71;100.00;95175.09;5135047;27;20945;-58
2022/07/08 01:52:34;;;;;;;0.40;0.30;;;;;;;21.28;100.00;95236.97;5134713;27;20465;-58
2022/07/08 01:55:04;;;;;;;0.40;0.27;;;;;;;21.45;100.00;95239.44;5134714;27;20563;-58
2022/07/08 01:57:34;;;;;;;0.40;0.20;;;;;;;21.53;100.00;95242.00;5134206;27;20418;-58
2022/07/08 02:00:05;;;;;;;0.60;0.60;;;;;;;21.54;100.00;95234.69;5134596;27;21188;-58
2022/07/08 02:02:33;;;;;;;0.50;0.30;;;;;;;21.58;100.00;95234.81;5134469;27;20929;-58
2022/07/08 02:05:01;;;;;;;0.50;0.40;;;;;;;21.59;100.00;95242.53;5134068;27;20430;-58
2022/07/08 02:07:31;;;;;;;0.60;0.47;;;;;;;21.64;100.00;95241.53;5134734;27;20432;-58
2022/07/08 02:09:59;;;;;;;0.50;0.40;;;;;;;21.66;100.00;95231.97;5134314;27;20427;-58
2022/07/08 02:12:27;;;;;;;0.40;0.30;;;;;;;21.60;100.00;95240.66;5134509;27;20913;-58
2022/07/08 02:15:01;;;;;;;0.40;0.30;;;;;;;21.59;100.00;95236.34;5134024;27;20462;-58
2022/07/08 02:17:32;;;;;;;0.50;0.30;;;;;;;21.48;100.00;95234.13;5134170;27;20435;-58
2022/07/08 02:20:00;;;;;;;0.40;0.27;;;;;;;21.54;100.00;95229.28;5134127;27;20430;-57
2022/07/08 02:22:29;;;;;;;0.47;0.40;;;;;;;21.26;100.00;95228.44;5134103;27;20483;-58
2022/07/08 02:24:57;;;;;;;0.40;0.20;;;;;;;21.04;100.00;95237.75;5133828;27;20427;-58
2022/07/08 02:27:26;;;;;;;0.50;0.30;;;;;;;20.47;100.00;95234.28;5134093;27;20423;-57
2022/07/08 02:29:54;;;;;;;0.50;0.30;;;;;;;20.86;100.00;95244.47;5133847;27;20434;-58
2022/07/08 02:32:24;;;;;;;0.50;0.30;;;;;;;21.09;100.00;95239.44;5133731;27;20419;-58
2022/07/08 02:34:53;;;;;;;0.60;0.33;;;;;;;21.36;100.00;95244.94;5133381;27;20426;-58
2022/07/08 02:37:21;;;;;;;0.40;0.30;;;;;;;21.42;100.00;95240.91;5133735;27;20430;-58
2022/07/08 02:39:50;;;;;;;1.27;0.40;;;;;;;21.47;100.00;95239.88;5133890;27;20439;-57
2022/07/08 02:42:18;;;;;;;0.40;0.30;;;;;;;21.27;100.00;95246.97;5133551;27;20464;-57
2022/07/08 02:44:46;;;;;;;0.57;0.53;;;;;;;20.87;100.00;95243.34;5133532;27;20772;-57
2022/07/08 02:47:15;;;;;;;0.50;0.30;;;;;;;21.14;100.00;95242.72;5133647;27;20419;-57
2022/07/08 02:49:45;;;;;;;0.50;0.50;;;;;;;21.38;100.00;95233.81;5133391;27;20480;-57
2022/07/08 02:52:13;;;;;;;0.40;0.20;;;;;;;21.50;100.00;95239.97;5133545;27;20426;-57
2022/07/08 02:54:41;;;;;;;0.40;0.20;;;;;;;21.68;100.00;95237.78;5133636;27;20470;-57
2022/07/08 02:57:10;;;;;;;3.07;0.40;;;;;;;21.24;100.00;95242.25;5133395;27;20444;-56
2022/07/08 02:59:38;;;;;;;0.40;0.20;;;;;;;21.41;100.00;95238.53;5133637;27;20854;-56
2022/07/08 03:02:07;;;;;;;0.50;0.40;;;;;;;21.37;100.00;95241.13;5133260;27;20426;-56
2022/07/08 03:04:42;;;;;;;0.53;0.40;;;;;;;21.60;100.00;95243.34;5133454;27;20890;-56
2022/07/08 03:07:12;;;;;;;0.40;0.30;;;;;;;21.65;100.00;95243.09;5133546;27;20497;-56
2022/07/08 03:09:40;;;;;;;0.50;0.30;;;;;;;21.49;100.00;95243.00;5133211;27;20462;-56
2022/07/08 03:12:10;;;;;;;0.40;0.30;;;;;;;21.65;100.00;95246.59;5133124;27;20530;-56
2022/07/08 03:14:38;;;;;;;0.40;0.33;;;;;;;21.77;100.00;95243.06;5132799;27;20581;-56
2022/07/08 03:17:06;;;;;;;0.40;0.30;;;;;;;21.76;100.00;95244.19;5133162;27;20454;-55
2022/07/08 03:19:35;;;;;;;0.40;0.30;;;;;;;21.77;100.00;95241.16;5133329;27;20423;-55
2022/07/08 03:22:04;;;;;;;0.40;0.30;;;;;;;21.79;100.00;95238.09;5133197;27;20435;-56
2022/07/08 03:24:52;;;;;;;1.50;0.40;;;;;;;21.61;100.00;95240.28;5132972;27;20434;-55
2022/07/08 03:27:21;;;;;;;0.40;0.20;;;;;;;21.68;100.00;95243.19;5132601;27;21018;-55
2022/07/08 03:29:49;;;;;;;0.80;0.80;;;;;;;21.57;100.00;95246.72;5132884;27;20474;-56
2022/07/08 03:32:18;;;;;;;0.50;0.40;;;;;;;21.75;100.00;95238.03;5133175;27;20517;-56
2022/07/08 03:34:46;;;;;;;0.40;0.30;;;;;;;21.71;100.00;95244.41;5132399;28;20462;-56
2022/07/08 03:37:14;;;;;;;0.40;0.30;;;;;;;21.75;100.00;95250.72;5132847;28;20499;-56
2022/07/08 03:39:45;;;;;;;0.50;0.30;;;;;;;21.78;100.00;95244.66;5132879;28;20422;-56
2022/07/08 03:42:12;;;;;;;0.40;0.30;;;;;;;21.70;100.00;95242.88;5132658;28;20454;-57
2022/07/08 03:44:40;;;;;;;2.40;0.50;;;;;;;21.82;100.00;95245.53;5132661;28;20870;-57
2022/07/08 03:47:09;;;;;;;0.40;0.20;;;;;;;21.50;100.00;95253.44;5133064;28;20450;-56
2022/07/08 03:49:38;;;;;;;0.40;0.20;;;;;;;20.50;100.00;95255.16;5132951;28;20434;-57
2022/07/08 03:52:07;;;;;;;0.50;0.30;;;;;;;20.62;100.00;95247.91;5132653;28;20525;-57
2022/07/08 03:54:35;;;;;;;0.50;0.40;;;;;;;20.92;100.00;95243.91;5132944;28;20468;-58
2022/07/08 03:57:06;;;;;;;0.40;0.30;;;;;;;20.84;100.00;95244.03;5132734;28;20446;-58
2022/07/08 03:59:34;;;;;;;1.97;0.60;;;;;;;20.80;100.00;95246.59;5132945;28;20493;-57
2022/07/08 04:02:02;;;;;;;0.50;0.30;;;;;;;20.82;100.00;95247.03;5133855;27;20510;-57
2022/07/08 04:04:31;;;;;;;1.43;0.50;;;;;;;20.80;100.00;95243.09;5137068;27;20848;-58
2022/07/08 04:06:59;;;;;;;0.40;0.30;;;;;;;20.81;100.00;95244.69;5136516;27;20430;-57
2022/07/08 04:09:28;;;;;;;0.50;0.40;;;;;;;20.97;100.00;95251.00;5136901;27;20483;-57
2022/07/08 04:11:56;;;;;;;0.90;0.60;;;;;;;20.73;100.00;95243.66;5136397;27;20496;-57
2022/07/08 04:14:26;;;;;;;0.50;0.40;;;;;;;20.99;100.00;95247.97;5136428;27;20581;-57
2022/07/08 04:16:54;;;;;;;0.50;0.30;;;;;;;21.00;100.00;95247.59;5136678;27;20461;-57
2022/07/08 04:19:23;;;;;;;0.80;0.40;;;;;;;20.96;100.00;95248.63;5136438;27;20483;-55
2022/07/08 04:21:51;;;;;;;0.57;0.47;;;;;;;20.85;100.00;95243.69;5136314;27;20510;-56
2022/07/08 04:24:20;;;;;;;0.40;0.30;;;;;;;20.48;100.00;95260.09;5136557;27;20454;-55
2022/07/08 04:26:48;;;;;;;3.90;0.40;;;;;;;20.13;100.00;95259.63;5136262;27;20461;-55
2022/07/08 04:29:16;;;;;;;0.60;0.50;;;;;;;19.95;100.00;95269.75;5135897;27;20498;-55
2022/07/08 04:31:46;;;;;;;0.63;0.40;;;;;;;20.22;100.00;95266.50;5136461;27;20552;-55
2022/07/08 04:34:15;;;;;;;0.50;0.40;;;;;;;20.70;100.00;95271.25;5135984;27;20553;-55
2022/07/08 04:36:43;;;;;;;0.53;0.53;;;;;;;20.53;100.00;95267.97;5136045;27;20423;-55
2022/07/08 04:39:12;;;;;;;0.50;0.30;;;;;;;20.48;100.00;95263.59;5135854;27;20430;-55
2022/07/08 04:41:40;;;;;;;0.40;0.30;;;;;;;21.09;100.00;95272.59;5135950;27;20506;-54
2022/07/08 04:44:08;;;;;;;0.40;0.30;;;;;;;21.63;100.00;95256.16;5135851;27;20835;-54
2022/07/08 04:46:37;;;;;;;1.77;0.40;;;;;;;21.91;100.00;95273.19;5136314;27;20494;-54
2022/07/08 04:49:07;;;;;;;0.80;0.80;;;;;;;21.74;100.00;95254.53;5135815;27;20435;-54
2022/07/08 04:51:35;;;;;;;0.50;0.40;;;;;;;21.21;100.00;95202.50;5136174;27;20476;-55
2022/07/08 04:54:04;;;;;;;0.77;0.77;;;;;;;21.39;100.00;95271.22;5135300;27;20501;-54
2022/07/08 04:56:32;;;;;;;0.50;0.40;;;;;;;21.75;100.00;95264.22;5135490;27;20431;-54
2022/07/08 04:59:01;;;;;;;0.40;0.30;;;;;;;22.02;100.00;95255.38;5135862;27;20454;-54
2022/07/08 05:01:29;;;;;;;0.53;0.53;;;;;;;22.35;100.00;95264.03;5135605;27;20455;-54
2022/07/08 05:03:58;;;;;;;0.50;0.30;;;;;;;21.98;100.00;95257.22;5135806;27;20433;-54
2022/07/08 05:06:28;;;;;;;0.50;0.40;;;;;;;21.81;100.00;95262.81;5135528;27;20454;-54
2022/07/08 05:09:14;;;;;;;1.97;1.77;;;;;;;21.71;100.00;95261.41;5135732;27;20556;-54
2022/07/08 05:11:43;;;;;;;0.80;0.40;;;;;;;22.13;100.00;95264.59;5135319;27;20466;-53
2022/07/08 05:14:13;;;;;;;0.50;0.37;;;;;;;22.15;100.00;95259.63;5134112;27;20603;-53
2022/07/08 05:16:42;;;;;;;0.63;0.63;;;;;;;21.40;100.00;95164.16;5134297;27;20437;-53
2022/07/08 05:19:11;;;;;;;0.50;0.40;;;;;;;22.24;100.00;95245.97;5135011;27;20431;-53
2022/07/08 05:21:41;;;;;;;0.47;0.37;;;;;;;22.32;100.00;95269.31;5135282;27;20534;-53
2022/07/08 05:24:09;;;;;;;0.60;0.30;;;;;;;22.16;100.00;95233.41;5134785;27;20517;-53
2022/07/08 05:26:38;;;;;;;0.50;0.50;;;;;;;21.95;100.00;95284.88;5134863;27;20470;-53
2022/07/08 05:29:06;;;;;;;0.50;0.40;;;;;;;21.53;100.00;95284.34;5134870;27;20528;-52
2022/07/08 05:31:34;;;;;;;0.67;0.47;;;;;;;21.69;100.00;95281.75;5134788;27;20986;-53
2022/07/08 05:34:03;;;;;;;1.10;0.70;;;;;;;21.83;100.00;95284.88;5134753;27;20454;-53
2022/07/08 05:36:31;;;;;;;5.90;0.50;;;;;;;21.78;100.00;95290.53;5135135;27;20487;-52
2022/07/08 05:39:02;;;;;;;0.50;0.40;;;;;;;22.09;100.00;95290.66;5133825;27;20465;-52
2022/07/08 05:41:30;;;;;;;0.50;0.43;;;;;;;22.29;100.00;95287.00;5134924;27;20564;-53
2022/07/08 05:44:03;;;;;;;0.83;0.53;;;;;;;23.09;100.00;95293.03;5134917;27;20517;-54
2022/07/08 05:46:31;;;;;;;0.40;0.30;;;;;;;22.65;100.00;95278.75;5134503;27;20465;-53
2022/07/08 05:49:00;;;;;;;0.50;0.40;;;;;;;22.57;100.00;95276.97;5134613;27;20537;-54
2022/07/08 05:51:28;;;;;;;0.40;0.20;;;;;;;23.00;100.00;95289.69;5134484;27;20419;-53
2022/07/08 05:53:56;;;;;;;0.50;0.50;;;;;;;22.98;100.00;95283.84;5134736;27;20456;-54
2022/07/08 05:56:26;;;;;;;0.50;0.30;;;;;;;23.22;100.00;95288.31;5134212;27;20517;-54
2022/07/08 05:59:01;;;;;;;2.53;0.37;;;;;;;23.47;100.00;95284.31;5134429;27;20439;-53
2022/07/08 06:01:29;;;;;;;0.40;0.30;;;;;;;23.50;100.00;95267.38;5134396;27;20423;-53
2022/07/08 06:03:58;;;;;;;0.90;0.70;;;;;;;23.72;100.00;95269.41;5134491;27;20423;-56
2022/07/08 06:06:27;;;;;;;0.50;0.47;;;;;;;22.99;100.00;95209.75;5134339;27;20490;-62
2022/07/08 06:08:55;;;;;;;0.40;0.30;;;;;;;24.12;100.00;95243.97;5134145;27;20814;-63
2022/07/08 06:11:24;;;;;;;0.60;0.50;;;;;;;24.05;100.00;95262.75;5133969;27;20469;-61
2022/07/08 06:13:54;;;;;;;0.60;0.40;;;;;;;24.73;100.00;95261.00;5133837;27;20519;-62
2022/07/08 06:16:22;;;;;;;0.50;0.30;;;;;;;24.30;100.00;95264.84;5133523;27;20978;-61
2022/07/08 06:18:51;;;;;;;2.20;1.00;;;;;;;24.29;100.00;95257.84;5133901;27;20442;-59
2022/07/08 06:21:19;;;;;;;0.40;0.30;;;;;;;24.66;100.00;95260.91;5134000;27;20956;-60
2022/07/08 06:23:47;;;;;;;0.70;0.60;;;;;;;24.59;100.00;95247.22;5134001;27;20458;-60
2022/07/08 06:26:17;;;;;;;0.70;0.60;;;;;;;25.07;96.63;95260.06;5133739;27;20507;-59
2022/07/08 06:28:45;;;;;;;1.23;1.23;;;;;;;25.06;98.12;95247.69;5134001;27;20451;-60
2022/07/08 06:31:15;;;;;;;0.57;0.57;;;;;;;25.01;95.91;95245.28;5133327;27;20462;-59
2022/07/08 06:33:44;;;;;;;0.60;0.60;;;;;;;25.70;89.27;95243.25;5133833;27;20500;-59
2022/07/08 06:36:16;;;;;;;0.70;0.50;;;;;;;25.81;91.50;95244.16;5133680;27;20535;-59
2022/07/08 06:38:44;;;;;;;5.50;0.50;;;;;;;26.20;81.02;95242.78;5133794;27;20442;-58
2022/07/08 06:41:13;;;;;;;0.43;0.40;;;;;;;25.69;84.58;95238.97;5133222;27;20427;-58
2022/07/08 06:43:41;;;;;;;0.40;0.30;;;;;;;26.36;78.72;95226.25;5133515;27;20575;-58
2022/07/08 06:46:09;;;;;;;0.50;0.40;;;;;;;26.32;74.59;95233.56;5133495;27;20928;-59
2022/07/08 06:48:39;;;;;;;0.50;0.40;;;;;;;26.41;77.84;95232.13;5133435;27;20431;-59
2022/07/08 06:51:08;;;;;;;0.60;0.60;;;;;;;27.29;68.29;95221.31;5133667;27;20509;-58
2022/07/08 06:56:18;;;;;;;0.80;0.80;;;;;;;26.49;65.78;95222.91;5133292;27;21033;-58
2022/07/08 06:58:47;;;;;;;1.17;1.10;;;;;;;26.85;71.99;95213.19;5133453;27;20451;-58
2022/07/08 07:01:15;;;;;;;0.50;0.30;;;;;;;27.18;69.68;95203.34;5133650;27;20916;-59
2022/07/08 07:03:45;;;;;;;2.83;0.60;;;;;;;27.30;72.16;95194.91;5133156;27;20927;-60
2022/07/08 07:06:14;;;;;;;0.63;0.60;;;;;;;28.01;63.82;95202.34;5133238;27;20423;-60
2022/07/08 07:08:42;;;;;;;0.77;0.77;;;;;;;28.45;64.58;95193.94;5133323;27;20558;-61
2022/07/08 07:11:11;;;;;;;0.50;0.33;;;;;;;28.33;65.01;95183.38;5133320;27;20462;-60
2022/07/08 07:13:39;;;;;;;0.40;0.30;;;;;;;28.50;65.24;95181.84;5132499;27;20456;-60
2022/07/08 07:16:08;;;;;;;0.70;0.70;;;;;;;28.79;59.22;95178.03;5133196;27;20494;-61
2022/07/08 07:18:37;;;;;;;1.33;0.50;;;;;;;28.69;55.84;95173.34;5133248;27;20444;-61
2022/07/08 07:21:07;;;;;;;0.40;0.40;;;;;;;28.48;58.63;95176.78;5132880;27;20491;-62
2022/07/08 07:23:35;;;;;;;0.53;0.53;;;;;;;28.76;56.79;95179.59;5133276;27;20419;-62
2022/07/08 07:26:03;;;;;;;0.83;0.83;;;;;;;28.44;57.22;95180.69;5132979;27;20467;-62
2022/07/08 07:28:32;;;;;;;0.80;0.47;;;;;;;27.08;65.60;95178.41;5133112;27;20458;-63
2022/07/08 07:31:01;;;;;;;0.80;0.80;;;;;;;27.17;71.27;95166.41;5133175;27;20437;-62
2022/07/08 07:33:29;;;;;;;1.57;0.73;;;;;;;27.65;67.77;95167.91;5132687;28;20465;-61
2022/07/08 07:35:58;;;;;;;0.80;0.80;;;;;;;28.17;69.67;95170.09;5132525;27;20510;-62
2022/07/08 07:38:28;;;;;;;0.60;0.43;;;;;;;27.81;65.35;95173.81;5132402;28;20421;-59
2022/07/08 07:40:57;;;;;;;0.50;0.30;;;;;;;27.80;63.63;95174.19;5133117;28;20475;-60
2022/07/08 07:43:25;;;;;;;0.50;0.40;;;;;;;27.97;65.89;95182.44;5132938;28;20517;-59
2022/07/08 07:45:53;;;;;;;0.60;0.53;;;;;;;28.80;61.09;95166.72;5132629;28;20418;-59
2022/07/08 07:48:22;;;;;;;0.50;0.40;;;;;;;28.77;61.39;95175.69;5132969;28;20426;-59
2022/07/08 07:50:50;;;;;;;0.60;0.47;;;;;;;28.95;60.04;95160.09;5132549;28;20435;-59
2022/07/08 07:53:19;;;;;;;0.50;0.50;;;;;;;28.55;60.78;95173.28;5132544;28;21153;-61
2022/07/08 07:55:49;;;;;;;0.40;0.30;;;;;;;29.12;58.11;95166.72;5132696;28;20911;-60
2022/07/08 07:58:17;;;;;;;0.83;0.83;;;;;;;29.16;55.78;95164.78;5132490;28;20476;-60
2022/07/08 08:00:46;;;;;;;0.50;0.43;;;;;;;28.46;58.09;95194.72;5132422;28;20426;-60
2022/07/08 08:03:14;;;;;;;0.63;0.60;;;;;;;29.41;56.86;95154.63;5132738;28;20475;-59
2022/07/08 08:05:43;;;;;;;0.50;0.40;;;;;;;29.30;57.16;95158.53;5131687;28;20514;-60
2022/07/08 08:08:12;;;;;;;0.67;0.40;;;;;;;29.81;55.18;95152.59;5132396;28;20513;-60
2022/07/08 08:10:40;;;;;;;0.73;0.70;;;;;;;28.77;58.62;95145.69;5132112;28;20912;-60
2022/07/08 08:13:11;;;;;;;0.73;0.40;;;;;;;29.82;57.85;95146.75;5132304;28;20469;-60
2022/07/08 08:15:39;;;;;;;0.63;0.40;;;;;;;30.34;56.50;95136.72;5131973;28;20518;-60
2022/07/08 08:18:08;;;;;;;0.43;0.43;;;;;;;31.13;57.38;95146.75;5132093;28;20957;-59
2022/07/08 08:20:37;;;;;;;7.80;0.47;;;;;;;30.86;51.63;95147.72;5131957;28;20430;-59
2022/07/08 08:23:06;;;;;;;0.83;0.50;;;;;;;30.94;53.82;95132.84;5132123;28;20524;-59
2022/07/08 08:25:51;;;;;;;1.23;0.70;;;;;;;31.46;51.09;95126.09;5132139;28;20442;-60
2022/07/08 08:28:21;;;;;;;0.60;0.50;;;;;;;31.15;51.95;95117.00;5131965;28;20423;-59
2022/07/08 08:30:49;;;;;;;0.60;0.50;;;;;;;31.09;52.13;95118.63;5132100;28;20473;-59
2022/07/08 08:33:18;;;;;;;0.40;0.30;;;;;;;31.62;50.39;95109.91;5131801;28;20836;-58
2022/07/08 08:35:46;;;;;;;0.40;0.30;;;;;;;31.11;47.55;95121.72;5131797;28;20923;-58
2022/07/08 08:38:15;;;;;;;0.50;0.30;;;;;;;32.32;47.02;95110.97;5131939;28;20459;-59
2022/07/08 08:40:44;;;;;;;0.40;0.30;;;;;;;31.47;47.02;95129.63;5131859;28;20489;-59
2022/07/08 08:43:13;;;;;;;0.43;0.40;;;;;;;31.68;52.78;95113.72;5131672;28;20507;-58
2022/07/08 08:45:47;;;;;;;0.60;0.30;;;;;;;32.00;51.73;95121.59;5131930;28;20433;-59
2022/07/08 08:48:18;;;;;;;1.47;0.43;;;;;;;32.12;49.86;95123.78;5133283;27;20491;-58
2022/07/08 08:50:55;;;;;;;0.60;0.47;;;;;;;32.49;48.73;95117.38;5135476;27;20986;-58
2022/07/08 08:53:27;;;;;;;0.50;0.50;;;;;;;32.28;47.27;95121.22;5135572;27;20431;-58
2022/07/08 08:55:56;;;;;;;1.00;0.40;;;;;;;31.53;50.28;95120.53;5135121;27;20521;-59
2022/07/08 08:58:25;;;;;;;0.50;0.50;;;;;;;30.50;52.63;95100.69;5135475;27;20459;-59
2022/07/08 09:00:55;;;;;;;0.40;0.40;;;;;;;29.89;58.18;95108.44;5135326;27;20525;-59
2022/07/08 09:03:24;;;;;;;1.27;1.23;;;;;;;29.36;61.92;95097.69;5135512;27;20786;-60
2022/07/08 09:05:52;;;;;;;0.60;0.53;;;;;;;29.35;63.26;95098.06;5135271;27;20655;-60
2022/07/08 09:08:21;;;;;;;0.60;0.50;;;;;;;28.81;71.65;95100.09;5134820;27;20509;-60
2022/07/08 09:10:49;;;;;;;0.53;0.50;;;;;;;28.78;68.56;95089.97;5134797;27;20932;-60
2022/07/08 09:13:19;;;;;;;0.30;0.20;;;;;;;28.72;70.01;95094.25;5135096;27;20422;-60
2022/07/08 09:15:49;;;;;;;0.40;0.30;;;;;;;28.57;69.88;95100.84;5134999;27;20916;-60
2022/07/08 09:18:22;;;;;;;0.53;0.40;;;;;;;28.49;71.22;95091.09;5134631;27;20478;-59
2022/07/08 09:20:51;;;;;;;0.40;0.40;;;;;;;28.62;74.70;95086.06;5134490;27;20427;-57
2022/07/08 09:23:21;;;;;;;0.63;0.63;;;;;;;28.49;71.22;94995.66;5134855;27;20422;-58
2022/07/08 09:25:51;;;;;;;0.40;0.40;;;;;;;30.64;61.81;95071.28;5135189;27;20511;-58
2022/07/08 09:28:29;;;;;;;0.40;0.30;;;;;;;31.13;59.49;95072.81;5134834;27;20485;-58
2022/07/08 09:31:00;;;;;;;0.40;0.40;;;;;;;30.79;56.32;95066.44;5134943;27;20927;-59
2022/07/08 09:33:30;;;;;;;0.40;0.30;;;;;;;30.48;60.07;95067.50;5134288;27;20514;-59
2022/07/08 09:36:01;;;;;;;0.50;0.50;;;;;;;30.38;59.75;95062.91;5134702;27;20419;-58
2022/07/08 09:38:34;;;;;;;0.40;0.30;;;;;;;30.90;57.10;95063.63;5134570;27;20483;-58
2022/07/08 09:41:05;;;;;;;0.50;0.50;;;;;;;31.02;54.60;95063.91;5134788;27;20422;-59
2022/07/08 09:43:34;;;;;;;0.40;0.40;;;;;;;30.97;52.84;95067.09;5134865;27;20481;-59
2022/07/08 09:46:04;;;;;;;0.43;0.40;;;;;;;30.74;53.51;95050.47;5134381;27;20513;-60
2022/07/08 09:48:34;;;;;;;0.50;0.50;;;;;;;29.70;64.18;95048.03;5134739;27;20444;-59
2022/07/08 09:51:07;;;;;;;0.90;0.50;;;;;;;30.14;62.18;95046.22;5134455;27;20483;-59
2022/07/08 09:53:37;;;;;;;0.50;0.40;;;;;;;30.25;60.95;95034.44;5133931;27;20435;-58
2022/07/08 09:56:07;;;;;;;0.70;0.70;;;;;;;30.73;61.22;95040.72;5134290;27;20454;-57
2022/07/08 09:58:37;;;;;;;0.47;0.40;;;;;;;30.85;58.84;95040.22;5133852;27;20478;-57
2022/07/08 10:01:06;;;;;;;0.67;0.67;;;;;;;30.63;59.71;94973.97;5133740;27;20472;-58
2022/07/08 10:03:36;;;;;;;0.90;0.90;;;;;;;31.51;55.28;95027.03;5134471;27;20995;-58
2022/07/08 10:06:05;;;;;;;0.60;0.50;;;;;;;32.84;52.15;95015.28;5134254;27;20435;-58
2022/07/08 10:08:35;;;;;;;1.67;0.40;;;;;;;32.79;47.50;95021.25;5133879;27;20421;-56
2022/07/08 10:11:07;;;;;;;0.47;0.43;;;;;;;32.46;49.00;95020.22;5133979;27;20434;-58
2022/07/08 10:13:37;;;;;;;0.57;0.57;;;;;;;31.43;46.76;94861.19;5133769;27;20510;-58
2022/07/08 10:16:10;;;;;;;0.50;0.47;;;;;;;33.01;47.63;94999.69;5133892;27;20525;-57
2022/07/08 10:18:45;;;;;;;0.43;0.40;;;;;;;32.71;46.07;94995.16;5134071;27;20467;-57
2022/07/08 10:21:18;;;;;;;0.60;0.60;;;;;;;32.26;44.64;94993.91;5133451;27;20434;-57
2022/07/08 10:23:49;;;;;;;0.40;0.30;;;;;;;32.10;47.68;94936.97;5133339;27;20421;-57
2022/07/08 10:26:20;;;;;;;0.50;0.50;;;;;;;32.63;43.25;94974.50;5134025;27;20426;-57
2022/07/08 10:29:01;;;;;;;0.40;0.40;;;;;;;32.15;44.96;94969.41;5133386;27;20431;-57
2022/07/08 10:31:30;;;;;;;0.40;0.30;;;;;;;32.10;44.92;94967.13;5133442;27;20430;-56
2022/07/08 10:34:03;;;;;;;0.67;0.67;;;;;;;32.43;44.88;94963.44;5133197;27;20474;-57
2022/07/08 10:36:42;;;;;;;0.60;0.60;;;;;;;32.09;46.53;94951.84;5133904;27;20431;-57
2022/07/08 10:39:13;;;;;;;4.13;0.60;;;;;;;32.05;39.18;94964.06;5133553;27;20469;-57
2022/07/08 10:41:56;;;;;;;0.60;0.47;;;;;;;33.57;40.29;94960.16;5133723;27;20484;-56
2022/07/08 10:44:50;;;;;;;0.50;0.50;;;;;;;33.51;43.25;94942.59;5133394;27;20504;-55
2022/07/08 10:47:25;;;;;;;0.60;0.50;;;;;;;33.73;42.54;94940.16;5133057;27;20476;-56
2022/07/08 10:50:05;;;;;;;0.53;0.53;;;;;;;32.39;41.86;94942.72;5133595;27;20462;-56
2022/07/08 10:52:39;;;;;;;1.23;1.23;;;;;;;32.18;41.85;94883.53;5133193;27;20416;-55
2022/07/08 10:55:12;;;;;;;0.53;0.40;;;;;;;32.44;42.63;94898.34;5133094;27;20435;-55
2022/07/08 10:57:54;;;;;;;0.63;0.63;;;;;;;33.82;41.36;94929.38;5133028;27;20466;-55
2022/07/08 11:00:23;;;;;;;0.63;0.60;;;;;;;33.14;39.89;94930.00;5133014;27;20509;-55
2022/07/08 11:02:52;;;;;;;0.60;0.60;;;;;;;33.24;38.24;94922.75;5133212;27;20465;-55
2022/07/08 11:05:38;;;;;;;0.70;0.70;;;;;;;32.26;37.66;94928.09;5133243;27;20511;-55
2022/07/08 11:08:27;;;;;;;0.70;0.70;;;;;;;32.70;38.07;94831.66;5133196;27;20451;-55
2022/07/08 11:10:56;;;;;;;0.60;0.40;;;;;;;32.96;38.49;94912.31;5132461;27;20509;-55
2022/07/08 11:13:26;;;;;;;1.33;0.90;;;;;;;33.97;35.29;94919.59;5132842;27;20515;-55
2022/07/08 11:15:56;;;;;;;1.00;0.93;;;;;;;33.47;35.92;94914.38;5132339;27;20479;-55
2022/07/08 11:18:26;;;;;;;0.87;0.87;;;;;;;34.14;36.94;94912.91;5132767;27;21038;-55
2022/07/08 11:21:01;;;;;;;0.40;0.40;;;;;;;33.97;36.12;94922.34;5132997;27;20463;-55
2022/07/08 11:23:30;;;;;;;0.40;0.40;;;;;;;33.62;37.08;94926.69;5132620;27;20441;-55
2022/07/08 11:26:00;;;;;;;0.60;0.40;;;;;;;34.25;38.09;94927.19;5132635;27;20484;-55
2022/07/08 11:28:28;;;;;;;0.40;0.40;;;;;;;34.55;36.00;94928.81;5132883;27;20426;-55
2022/07/08 11:30:59;;;;;;;0.70;0.70;;;;;;;34.93;35.56;94929.75;5133110;27;20460;-54
2022/07/08 11:33:43;;;;;;;0.70;0.70;;;;;;;34.79;35.47;94938.38;5132607;27;20894;-55
2022/07/08 11:36:17;;;;;;;1.77;0.50;;;;;;;34.48;36.10;94926.97;5131010;28;20529;-55
2022/07/08 11:38:47;;;;;;;0.60;0.40;;;;;;;33.54;34.72;94935.47;5135040;28;20927;-63
2022/07/08 11:41:17;;;;;;;0.70;0.70;;;;;;;34.19;37.07;94928.88;5137226;28;20488;-63
2022/07/08 11:43:46;;;;;;;0.60;0.60;;;;;;;33.35;38.64;94925.25;5131727;28;20426;-63